sensor_id;sensor_type;location;lat;lon;timestamp;pressure;altitude;pressure_sealevel;temperature;humidity
18900;BME280;9582;52.018;6.306;2023-07-31T00:01:17;97296.31;;;14.80;71.52
18900;BME280;9582;52.018;6.306;2023-07-31T00:03:45;97283.16;;;14.80;70.78
18900;BME280;9582;52.018;6.306;2023-07-31T00:06:12;97264.41;;;14.83;69.89
18900;BME280;9582;52.018;6.306;2023-07-31T00:08:38;97251.25;;;14.83;69.19
18900;BME280;9582;52.018;6.306;2023-07-31T00:11:06;97220.94;;;14.87;68.58
18900;BME280;9582;52.018;6.306;2023-07-31T00:13:32;97211.25;;;14.88;67.93
18900;BME280;9582;52.018;6.306;2023-07-31T00:15:59;97192.00;;;14.87;67.35
18900;BME280;9582;52.018;6.306;2023-07-31T00:18:25;97181.50;;;14.87;66.97
18900;BME280;9582;52.018;6.306;2023-07-31T00:20:52;97165.34;;;14.90;66.54
18900;BME280;9582;52.018;6.306;2023-07-31T00:23:18;97146.31;;;14.88;66.19
18900;BME280;9582;52.018;6.306;2023-07-31T00:25:45;97137.25;;;14.91;65.79
18900;BME280;9582;52.018;6.306;2023-07-31T00:28:13;97111.13;;;14.89;65.46
18900;BME280;9582;52.018;6.306;2023-07-31T00:30:39;97096.78;;;14.92;64.98
18900;BME280;9582;52.018;6.306;2023-07-31T00:33:06;97077.19;;;14.94;64.64
18900;BME280;9582;52.018;6.306;2023-07-31T00:35:32;97056.97;;;14.95;64.34
18900;BME280;9582;52.018;6.306;2023-07-31T00:37:59;97042.00;;;14.95;64.05
18900;BME280;9582;52.018;6.306;2023-07-31T00:40:25;97023.41;;;14.97;63.62
18900;BME280;9582;52.018;6.306;2023-07-31T00:42:52;97011.88;;;14.98;63.33
18900;BME280;9582;52.018;6.306;2023-07-31T00:45:20;96983.78;;;14.98;63.02
18900;BME280;9582;52.018;6.306;2023-07-31T00:47:48;96961.91;;;14.98;62.83
18900;BME280;9582;52.018;6.306;2023-07-31T00:50:14;96951.19;;;14.99;62.53
18900;BME280;9582;52.018;6.306;2023-07-31T00:52:41;96937.88;;;15.01;62.28
18900;BME280;9582;52.018;6.306;2023-07-31T00:55:08;96920.25;;;15.01;61.99
18900;BME280;9582;52.018;6.306;2023-07-31T00:57:36;96914.22;;;15.08;61.72
18900;BME280;9582;52.018;6.306;2023-07-31T01:00:05;96891.56;;;15.07;61.45
18900;BME280;9582;52.018;6.306;2023-07-31T01:02:33;96893.00;;;15.09;61.27
18900;BME280;9582;52.018;6.306;2023-07-31T01:05:00;96880.66;;;15.10;61.00
18900;BME280;9582;52.018;6.306;2023-07-31T01:07:35;96857.59;;;15.12;60.85
18900;BME280;9582;52.018;6.306;2023-07-31T01:10:10;96846.25;;;15.11;60.68
18900;BME280;9582;52.018;6.306;2023-07-31T01:12:38;96838.97;;;15.13;60.49
18900;BME280;9582;52.018;6.306;2023-07-31T01:15:05;96827.25;;;15.16;60.22
18900;BME280;9582;52.018;6.306;2023-07-31T01:17:37;96798.56;;;15.21;59.97
18900;BME280;9582;52.018;6.306;2023-07-31T01:20:07;96771.88;;;15.24;59.76
18900;BME280;9582;52.018;6.306;2023-07-31T01:25:53;96698.22;;;15.37;59.30
18900;BME280;9582;52.018;6.306;2023-07-31T01:28:37;96676.38;;;15.43;59.13
18900;BME280;9582;52.018;6.306;2023-07-31T01:31:07;96650.28;;;15.48;58.91
18900;BME280;9582;52.018;6.306;2023-07-31T01:33:36;96584.69;;;15.53;58.74
18900;BME280;9582;52.018;6.306;2023-07-31T01:36:03;96555.94;;;15.58;58.61
18900;BME280;9582;52.018;6.306;2023-07-31T01:38:30;96527.19;;;15.63;58.48
18900;BME280;9582;52.018;6.306;2023-07-31T01:40:58;96502.69;;;15.69;58.40
18900;BME280;9582;52.018;6.306;2023-07-31T01:43:24;96480.78;;;15.75;58.36
18900;BME280;9582;52.018;6.306;2023-07-31T01:45:51;96449.59;;;15.79;58.24
18900;BME280;9582;52.018;6.306;2023-07-31T01:48:18;96429.31;;;15.86;58.19
18900;BME280;9582;52.018;6.306;2023-07-31T01:50:44;96414.09;;;15.88;58.16
18900;BME280;9582;52.018;6.306;2023-07-31T01:53:11;96386.31;;;15.92;58.14
18900;BME280;9582;52.018;6.306;2023-07-31T01:55:38;96372.16;;;15.93;58.17
18900;BME280;9582;52.018;6.306;2023-07-31T01:58:07;96356.75;;;15.96;58.18
18900;BME280;9582;52.018;6.306;2023-07-31T02:00:34;96344.56;;;15.95;58.17
18900;BME280;9582;52.018;6.306;2023-07-31T02:03:00;96333.63;;;15.98;58.16
18900;BME280;9582;52.018;6.306;2023-07-31T02:05:27;96323.09;;;15.98;58.16
18900;BME280;9582;52.018;6.306;2023-07-31T02:07:53;96309.72;;;16.00;58.21
18900;BME280;9582;52.018;6.306;2023-07-31T02:10:20;96306.03;;;16.01;58.23
18900;BME280;9582;52.018;6.306;2023-07-31T02:12:46;96299.97;;;16.00;58.25
18900;BME280;9582;52.018;6.306;2023-07-31T02:15:14;96300.78;;;16.01;58.26
18900;BME280;9582;52.018;6.306;2023-07-31T02:17:41;96297.13;;;16.02;58.29
18900;BME280;9582;52.018;6.306;2023-07-31T02:20:08;96295.31;;;16.02;58.34
18900;BME280;9582;52.018;6.306;2023-07-31T02:22:35;96291.88;;;16.02;58.40
18900;BME280;9582;52.018;6.306;2023-07-31T02:25:02;96270.78;;;16.02;58.43
18900;BME280;9582;52.018;6.306;2023-07-31T02:27:28;96268.16;;;16.02;58.50
18900;BME280;9582;52.018;6.306;2023-07-31T02:29:55;96274.25;;;16.02;58.54
18900;BME280;9582;52.018;6.306;2023-07-31T02:32:22;96255.56;;;16.04;58.63
18900;BME280;9582;52.018;6.306;2023-07-31T02:34:49;96248.47;;;16.04;58.72
18900;BME280;9582;52.018;6.306;2023-07-31T02:37:16;96253.16;;;16.02;58.80
18900;BME280;9582;52.018;6.306;2023-07-31T02:39:42;96242.22;;;16.05;58.89
18900;BME280;9582;52.018;6.306;2023-07-31T02:42:09;96253.75;;;16.04;59.02
18900;BME280;9582;52.018;6.306;2023-07-31T02:44:36;96257.41;;;16.03;59.12
18900;BME280;9582;52.018;6.306;2023-07-31T02:47:03;96242.81;;;16.01;59.17
18900;BME280;9582;52.018;6.306;2023-07-31T02:49:31;96240.41;;;15.99;59.21
18900;BME280;9582;52.018;6.306;2023-07-31T02:51:57;96246.94;;;15.97;59.25
18900;BME280;9582;52.018;6.306;2023-07-31T02:54:24;96253.00;;;15.97;59.26
18900;BME280;9582;52.018;6.306;2023-07-31T02:56:50;96247.13;;;15.95;59.30
18900;BME280;9582;52.018;6.306;2023-07-31T02:59:17;96243.69;;;15.95;59.39
18900;BME280;9582;52.018;6.306;2023-07-31T03:01:44;96242.09;;;15.94;59.42
18900;BME280;9582;52.018;6.306;2023-07-31T03:04:10;96239.44;;;15.94;59.42
18900;BME280;9582;52.018;6.306;2023-07-31T03:06:38;96240.25;;;15.94;59.46
18900;BME280;9582;52.018;6.306;2023-07-31T03:09:05;96245.53;;;15.94;59.53
18900;BME280;9582;52.018;6.306;2023-07-31T03:11:31;96241.28;;;15.93;59.59
18900;BME280;9582;52.018;6.306;2023-07-31T03:13:58;96243.91;;;15.93;59.66
18900;BME280;9582;52.018;6.306;2023-07-31T03:16:24;96249.75;;;15.95;59.74
18900;BME280;9582;52.018;6.306;2023-07-31T03:18:51;96244.50;;;15.95;59.82
18900;BME280;9582;52.018;6.306;2023-07-31T03:21:17;96239.22;;;15.95;59.97
18900;BME280;9582;52.018;6.306;2023-07-31T03:23:45;96231.13;;;15.97;60.12
18900;BME280;9582;52.018;6.306;2023-07-31T03:26:12;96228.69;;;15.95;60.29
18900;BME280;9582;52.018;6.306;2023-07-31T03:28:38;96223.41;;;15.95;60.52
18900;BME280;9582;52.018;6.306;2023-07-31T03:31:05;96227.88;;;15.95;60.77
18900;BME280;9582;52.018;6.306;2023-07-31T03:33:33;96226.88;;;15.96;61.11
18900;BME280;9582;52.018;6.306;2023-07-31T03:36:00;96232.38;;;15.94;61.30
18900;BME280;9582;52.018;6.306;2023-07-31T03:38:27;96236.81;;;15.94;61.59
18900;BME280;9582;52.018;6.306;2023-07-31T03:40:55;96241.03;;;15.95;62.04
18900;BME280;9582;52.018;6.306;2023-07-31T03:43:21;96245.72;;;15.93;62.37
18900;BME280;9582;52.018;6.306;2023-07-31T03:45:48;96255.44;;;15.92;62.88
18900;BME280;9582;52.018;6.306;2023-07-31T03:48:15;96260.13;;;15.90;63.15
18900;BME280;9582;52.018;6.306;2023-07-31T03:50:41;96259.31;;;15.90;63.50
18900;BME280;9582;52.018;6.306;2023-07-31T03:53:08;96264.81;;;15.88;63.87
18900;BME280;9582;52.018;6.306;2023-07-31T03:55:34;96270.66;;;15.90;64.47
18900;BME280;9582;52.018;6.306;2023-07-31T03:58:02;96279.78;;;15.88;64.88
18900;BME280;9582;52.018;6.306;2023-07-31T04:00:28;96284.25;;;15.87;65.31
18900;BME280;9582;52.018;6.306;2023-07-31T04:02:55;96289.75;;;15.86;65.94
18900;BME280;9582;52.018;6.306;2023-07-31T04:05:22;96295.22;;;15.84;66.61
18900;BME280;9582;52.018;6.306;2023-07-31T04:07:48;96308.38;;;15.84;67.21
18900;BME280;9582;52.018;6.306;2023-07-31T04:10:15;96314.69;;;15.83;67.88
18900;BME280;9582;52.018;6.306;2023-07-31T04:12:41;96329.03;;;15.81;68.62
18900;BME280;9582;52.018;6.306;2023-07-31T04:15:09;96340.63;;;15.80;69.43
18900;BME280;9582;52.018;6.306;2023-07-31T04:17:36;96352.97;;;15.79;70.49
18900;BME280;9582;52.018;6.306;2023-07-31T04:20:03;96360.06;;;15.79;71.70
18900;BME280;9582;52.018;6.306;2023-07-31T04:22:29;96364.72;;;15.77;72.44
18900;BME280;9582;52.018;6.306;2023-07-31T04:24:56;96384.16;;;15.76;73.30
18900;BME280;9582;52.018;6.306;2023-07-31T04:27:22;96353.38;;;15.76;74.45
18900;BME280;9582;52.018;6.306;2023-07-31T04:29:49;96361.28;;;15.76;75.28
18900;BME280;9582;52.018;6.306;2023-07-31T04:32:17;96361.50;;;15.75;76.36
18900;BME280;9582;52.018;6.306;2023-07-31T04:34:45;96372.63;;;15.77;77.69
18900;BME280;9582;52.018;6.306;2023-07-31T04:37:11;96388.63;;;15.75;78.86
18900;BME280;9582;52.018;6.306;2023-07-31T04:39:39;96394.50;;;15.77;81.69
18900;BME280;9582;52.018;6.306;2023-07-31T04:42:06;96396.09;;;15.78;86.30
18900;BME280;9582;52.018;6.306;2023-07-31T04:44:32;96406.63;;;15.78;92.62
18900;BME280;9582;52.018;6.306;2023-07-31T04:46:58;96402.78;;;15.81;97.14
18900;BME280;9582;52.018;6.306;2023-07-31T04:49:26;96415.16;;;15.80;100.00
18900;BME280;9582;52.018;6.306;2023-07-31T04:51:53;96423.06;;;15.80;100.00
18900;BME280;9582;52.018;6.306;2023-07-31T04:54:19;96441.69;;;15.79;100.00
18900;BME280;9582;52.018;6.306;2023-07-31T04:56:46;96455.84;;;15.78;100.00
18900;BME280;9582;52.018;6.306;2023-07-31T04:59:13;96458.50;;;15.78;100.00
18900;BME280;9582;52.018;6.306;2023-07-31T05:01:39;96476.91;;;15.78;100.00
18900;BME280;9582;52.018;6.306;2023-07-31T05:04:06;96486.44;;;15.79;100.00
18900;BME280;9582;52.018;6.306;2023-07-31T05:06:34;96492.53;;;15.79;100.00
18900;BME280;9582;52.018;6.306;2023-07-31T05:09:00;96506.28;;;15.81;100.00
18900;BME280;9582;52.018;6.306;2023-07-31T05:11:27;96520.09;;;15.83;100.00
18900;BME280;9582;52.018;6.306;2023-07-31T05:13:53;96538.69;;;15.88;100.00
18900;BME280;9582;52.018;6.306;2023-07-31T05:16:20;96535.84;;;15.90;100.00
18900;BME280;9582;52.018;6.306;2023-07-31T05:18:48;96537.66;;;15.89;100.00
18900;BME280;9582;52.018;6.306;2023-07-31T05:21:14;96556.91;;;15.90;100.00
18900;BME280;9582;52.018;6.306;2023-07-31T05:23:42;96555.09;;;15.90;100.00
18900;BME280;9582;52.018;6.306;2023-07-31T05:26:09;96557.72;;;15.90;100.00
18900;BME280;9582;52.018;6.306;2023-07-31T05:28:36;96571.72;;;15.91;100.00
18900;BME280;9582;52.018;6.306;2023-07-31T05:31:03;96581.03;;;15.93;100.00
18900;BME280;9582;52.018;6.306;2023-07-31T05:33:30;96583.25;;;15.96;100.00
18900;BME280;9582;52.018;6.306;2023-07-31T05:35:57;96586.50;;;15.98;100.00
18900;BME280;9582;52.018;6.306;2023-07-31T05:38:23;96579.81;;;16.02;100.00
18900;BME280;9582;52.018;6.306;2023-07-31T05:40:51;96594.78;;;16.08;100.00
18900;BME280;9582;52.018;6.306;2023-07-31T05:43:18;96595.41;;;16.10;100.00
18900;BME280;9582;52.018;6.306;2023-07-31T05:45:44;96608.16;;;16.13;100.00
18900;BME280;9582;52.018;6.306;2023-07-31T05:48:11;96625.56;;;16.14;100.00
18900;BME280;9582;52.018;6.306;2023-07-31T05:50:37;96628.19;;;16.14;100.00
18900;BME280;9582;52.018;6.306;2023-07-31T05:53:05;96655.78;;;16.12;100.00
18900;BME280;9582;52.018;6.306;2023-07-31T05:55:31;96655.00;;;16.11;100.00
18900;BME280;9582;52.018;6.306;2023-07-31T05:57:59;96678.88;;;16.10;100.00
18900;BME280;9582;52.018;6.306;2023-07-31T06:00:26;96691.25;;;16.09;100.00
18900;BME280;9582;52.018;6.306;2023-07-31T06:02:53;96698.56;;;16.07;100.00
18900;BME280;9582;52.018;6.306;2023-07-31T06:05:19;96707.69;;;16.05;100.00
18900;BME280;9582;52.018;6.306;2023-07-31T06:07:46;96725.50;;;16.03;100.00
18900;BME280;9582;52.018;6.306;2023-07-31T06:10:12;96734.00;;;15.98;100.00
18900;BME280;9582;52.018;6.306;2023-07-31T06:12:39;96741.31;;;15.96;100.00
18900;BME280;9582;52.018;6.306;2023-07-31T06:15:08;96746.16;;;15.93;100.00
18900;BME280;9582;52.018;6.306;2023-07-31T06:17:34;96749.59;;;15.93;100.00
18900;BME280;9582;52.018;6.306;2023-07-31T06:20:01;96749.78;;;15.92;100.00
18900;BME280;9582;52.018;6.306;2023-07-31T06:22:28;96746.16;;;15.93;100.00
18900;BME280;9582;52.018;6.306;2023-07-31T06:24:55;96751.25;;;15.94;100.00
18900;BME280;9582;52.018;6.306;2023-07-31T06:27:21;96736.03;;;15.96;100.00
18900;BME280;9582;52.018;6.306;2023-07-31T06:29:49;96721.66;;;15.99;100.00
18900;BME280;9582;52.018;6.306;2023-07-31T06:32:17;96713.34;;;16.02;100.00
18900;BME280;9582;52.018;6.306;2023-07-31T06:34:43;96692.69;;;16.05;100.00
18900;BME280;9582;52.018;6.306;2023-07-31T06:37:10;96692.06;;;16.10;100.00
18900;BME280;9582;52.018;6.306;2023-07-31T06:39:36;96672.41;;;16.12;100.00
18900;BME280;9582;52.018;6.306;2023-07-31T06:42:03;96654.97;;;16.18;100.00
18900;BME280;9582;52.018;6.306;2023-07-31T06:44:30;96633.88;;;16.25;91.61
18900;BME280;9582;52.018;6.306;2023-07-31T06:46:56;96613.97;;;16.29;85.79
18900;BME280;9582;52.018;6.306;2023-07-31T06:49:24;96586.00;;;16.34;83.01
18900;BME280;9582;52.018;6.306;2023-07-31T06:51:51;96576.66;;;16.38;79.54
18900;BME280;9582;52.018;6.306;2023-07-31T06:54:17;96559.22;;;16.44;78.27
18900;BME280;9582;52.018;6.306;2023-07-31T06:56:44;96539.34;;;16.48;77.16
18900;BME280;9582;52.018;6.306;2023-07-31T06:59:10;96526.94;;;16.48;76.53
18900;BME280;9582;52.018;6.306;2023-07-31T07:01:37;96508.28;;;16.50;75.88
18900;BME280;9582;52.018;6.306;2023-07-31T07:04:03;96489.84;;;16.50;75.21
18900;BME280;9582;52.018;6.306;2023-07-31T07:06:31;96479.88;;;16.52;74.36
18900;BME280;9582;52.018;6.306;2023-07-31T07:08:58;96463.06;;;16.53;73.70
18900;BME280;9582;52.018;6.306;2023-07-31T07:11:24;96453.13;;;16.55;73.08
18900;BME280;9582;52.018;6.306;2023-07-31T07:13:51;96437.91;;;16.57;72.60
18900;BME280;9582;52.018;6.306;2023-07-31T07:16:17;96422.47;;;16.60;72.07
18900;BME280;9582;52.018;6.306;2023-07-31T07:18:44;96415.97;;;16.63;71.57
18900;BME280;9582;52.018;6.306;2023-07-31T07:21:10;96403.59;;;16.63;70.91
18900;BME280;9582;52.018;6.306;2023-07-31T07:23:42;96394.88;;;16.63;70.42
18900;BME280;9582;52.018;6.306;2023-07-31T07:26:08;96388.00;;;16.62;70.07
18900;BME280;9582;52.018;6.306;2023-07-31T07:28:35;96379.03;;;16.63;69.63
18900;BME280;9582;52.018;6.306;2023-07-31T07:31:02;96377.22;;;16.63;69.19
18900;BME280;9582;52.018;6.306;2023-07-31T07:33:29;96358.56;;;16.65;68.90
18900;BME280;9582;52.018;6.306;2023-07-31T07:35:55;96337.19;;;16.73;68.09
18900;BME280;9582;52.018;6.306;2023-07-31T07:38:21;96324.91;;;16.85;67.22
18900;BME280;9582;52.018;6.306;2023-07-31T07:40:50;96302.13;;;16.91;66.84
18900;BME280;9582;52.018;6.306;2023-07-31T07:43:18;96290.06;;;17.01;66.42
18900;BME280;9582;52.018;6.306;2023-07-31T07:45:45;96291.66;;;17.02;66.44
18900;BME280;9582;52.018;6.306;2023-07-31T07:48:11;96282.16;;;17.01;66.42
18900;BME280;9582;52.018;6.306;2023-07-31T07:50:38;96273.00;;;17.04;66.41
18900;BME280;9582;52.018;6.306;2023-07-31T07:53:04;96264.25;;;17.03;66.61
18900;BME280;9582;52.018;6.306;2023-07-31T07:55:31;96263.25;;;17.04;66.72
18900;BME280;9582;52.018;6.306;2023-07-31T07:57:59;96243.28;;;17.08;66.44
18900;BME280;9582;52.018;6.306;2023-07-31T08:00:25;96239.06;;;17.07;66.52
18900;BME280;9582;52.018;6.306;2023-07-31T08:02:52;96243.16;;;17.03;66.70
18900;BME280;9582;52.018;6.306;2023-07-31T08:05:18;96239.94;;;17.01;66.40
18900;BME280;9582;52.018;6.306;2023-07-31T08:07:45;96228.00;;;16.99;66.34
18900;BME280;9582;52.018;6.306;2023-07-31T08:10:11;96226.94;;;17.00;66.15
18900;BME280;9582;52.018;6.306;2023-07-31T08:12:38;96218.84;;;17.01;65.82
18900;BME280;9582;52.018;6.306;2023-07-31T08:15:07;96204.59;;;17.02;65.63
18900;BME280;9582;52.018;6.306;2023-07-31T08:17:33;96200.56;;;17.00;65.59
18900;BME280;9582;52.018;6.306;2023-07-31T08:20:00;96185.91;;;17.04;65.36
18900;BME280;9582;52.018;6.306;2023-07-31T08:22:27;96189.00;;;17.01;65.28
18900;BME280;9582;52.018;6.306;2023-07-31T08:24:53;96180.06;;;17.02;65.06
18900;BME280;9582;52.018;6.306;2023-07-31T08:27:19;96171.91;;;17.03;64.81
18900;BME280;9582;52.018;6.306;2023-07-31T08:29:46;96164.72;;;17.10;64.53
18900;BME280;9582;52.018;6.306;2023-07-31T08:32:14;96154.53;;;17.14;64.42
18900;BME280;9582;52.018;6.306;2023-07-31T08:34:40;96146.59;;;17.14;64.52
18900;BME280;9582;52.018;6.306;2023-07-31T08:37:07;96151.88;;;17.14;64.43
18900;BME280;9582;52.018;6.306;2023-07-31T08:39:33;96143.78;;;17.15;64.28
18900;BME280;9582;52.018;6.306;2023-07-31T08:42:00;96131.00;;;17.12;64.39
18900;BME280;9582;52.018;6.306;2023-07-31T08:44:27;96125.94;;;17.11;64.14
18900;BME280;9582;52.018;6.306;2023-07-31T08:46:53;96116.19;;;17.11;63.92
18900;BME280;9582;52.018;6.306;2023-07-31T08:49:22;96105.00;;;17.16;63.76
18900;BME280;9582;52.018;6.306;2023-07-31T08:51:50;96095.94;;;17.23;63.45
18900;BME280;9582;52.018;6.306;2023-07-31T08:54:16;96078.03;;;17.25;63.58
18900;BME280;9582;52.018;6.306;2023-07-31T08:56:43;96075.78;;;17.29;63.54
18900;BME280;9582;52.018;6.306;2023-07-31T08:59:11;96063.25;;;17.36;63.38
18900;BME280;9582;52.018;6.306;2023-07-31T09:01:43;96064.66;;;17.39;63.30
18900;BME280;9582;52.018;6.306;2023-07-31T09:04:16;96049.41;;;17.41;63.29
18900;BME280;9582;52.018;6.306;2023-07-31T09:06:46;96060.97;;;17.40;63.45
18900;BME280;9582;52.018;6.306;2023-07-31T09:09:14;96041.69;;;17.39;63.53
18900;BME280;9582;52.018;6.306;2023-07-31T09:11:40;96046.97;;;17.39;63.62
18900;BME280;9582;52.018;6.306;2023-07-31T09:14:08;96038.84;;;17.41;63.55
18900;BME280;9582;52.018;6.306;2023-07-31T09:16:35;96043.06;;;17.42;63.67
18900;BME280;9582;52.018;6.306;2023-07-31T09:19:01;96036.22;;;17.41;63.71
18900;BME280;9582;52.018;6.306;2023-07-31T09:21:28;96020.56;;;17.39;64.21
18900;BME280;9582;52.018;6.306;2023-07-31T09:23:57;96013.59;;;17.45;63.95
18900;BME280;9582;52.018;6.306;2023-07-31T09:26:30;96011.88;;;17.50;63.81
18900;BME280;9582;52.018;6.306;2023-07-31T09:28:57;96009.47;;;17.49;64.19
18900;BME280;9582;52.018;6.306;2023-07-31T09:31:38;96000.84;;;17.53;64.17
18900;BME280;9582;52.018;6.306;2023-07-31T09:34:05;96006.38;;;17.52;64.31
18900;BME280;9582;52.018;6.306;2023-07-31T09:36:32;96016.13;;;17.51;64.48
18900;BME280;9582;52.018;6.306;2023-07-31T09:39:03;96006.97;;;17.54;64.65
18900;BME280;9582;52.018;6.306;2023-07-31T09:41:30;95998.59;;;17.57;64.57
18900;BME280;9582;52.018;6.306;2023-07-31T09:43:56;96004.13;;;17.55;64.94
18900;BME280;9582;52.018;6.306;2023-07-31T09:46:26;95993.78;;;17.54;65.02
18900;BME280;9582;52.018;6.306;2023-07-31T09:49:03;95998.66;;;17.50;64.97
18900;BME280;9582;52.018;6.306;2023-07-31T09:51:30;96012.31;;;17.47;65.40
18900;BME280;9582;52.018;6.306;2023-07-31T09:53:57;96012.22;;;17.42;65.42
18900;BME280;9582;52.018;6.306;2023-07-31T09:56:25;96014.03;;;17.42;65.64
18900;BME280;9582;52.018;6.306;2023-07-31T09:58:53;96010.03;;;17.39;65.51
18900;BME280;9582;52.018;6.306;2023-07-31T10:01:20;96017.94;;;17.39;65.51
18900;BME280;9582;52.018;6.306;2023-07-31T10:03:47;96018.63;;;17.35;65.57
18900;BME280;9582;52.018;6.306;2023-07-31T10:06:14;96017.00;;;17.33;65.57
18900;BME280;9582;52.018;6.306;2023-07-31T10:08:46;96013.72;;;17.38;65.35
18900;BME280;9582;52.018;6.306;2023-07-31T10:11:14;96009.22;;;17.39;65.25
18900;BME280;9582;52.018;6.306;2023-07-31T10:13:42;96014.28;;;17.40;65.19
18900;BME280;9582;52.018;6.306;2023-07-31T10:16:10;96019.31;;;17.42;65.21
18900;BME280;9582;52.018;6.306;2023-07-31T10:18:38;96013.00;;;17.43;65.28
18900;BME280;9582;52.018;6.306;2023-07-31T10:21:06;96023.38;;;17.44;65.53
18900;BME280;9582;52.018;6.306;2023-07-31T10:23:33;96013.13;;;17.48;65.39
18900;BME280;9582;52.018;6.306;2023-07-31T10:26:01;96004.53;;;17.52;65.18
18900;BME280;9582;52.018;6.306;2023-07-31T10:28:29;95997.41;;;17.53;65.49
18900;BME280;9582;52.018;6.306;2023-07-31T10:30:57;95986.19;;;17.57;65.76
18900;BME280;9582;52.018;6.306;2023-07-31T10:33:24;95969.00;;;17.66;65.86
18900;BME280;9582;52.018;6.306;2023-07-31T10:36:13;95954.63;;;17.74;65.94
18900;BME280;9582;52.018;6.306;2023-07-31T10:38:41;95954.50;;;17.80;66.49
18900;BME280;9582;52.018;6.306;2023-07-31T10:41:08;95952.53;;;17.87;66.87
18900;BME280;9582;52.018;6.306;2023-07-31T10:43:36;95957.00;;;17.87;68.04
18900;BME280;9582;52.018;6.306;2023-07-31T10:46:07;95944.13;;;17.91;68.90
18900;BME280;9582;52.018;6.306;2023-07-31T10:48:35;95959.53;;;17.94;70.15
18900;BME280;9582;52.018;6.306;2023-07-31T10:51:07;95944.69;;;18.04;70.46
18900;BME280;9582;52.018;6.306;2023-07-31T10:53:35;95948.81;;;18.12;71.61
18900;BME280;9582;52.018;6.306;2023-07-31T10:56:02;95931.78;;;18.19;72.21
18900;BME280;9582;52.018;6.306;2023-07-31T10:58:29;95941.53;;;18.19;73.86
18900;BME280;9582;52.018;6.306;2023-07-31T11:00:58;95952.25;;;18.12;76.81
18900;BME280;9582;52.018;6.306;2023-07-31T11:03:27;95959.59;;;18.10;83.65
18900;BME280;9582;52.018;6.306;2023-07-31T11:06:00;95977.75;;;18.07;88.91
18900;BME280;9582;52.018;6.306;2023-07-31T11:08:29;95989.38;;;18.06;93.53
18900;BME280;9582;52.018;6.306;2023-07-31T11:11:05;95984.41;;;18.09;96.18
18900;BME280;9582;52.018;6.306;2023-07-31T11:13:33;95983.50;;;18.15;97.78
18900;BME280;9582;52.018;6.306;2023-07-31T11:16:00;95994.19;;;18.20;100.00
18900;BME280;9582;52.018;6.306;2023-07-31T11:18:28;95991.50;;;18.32;100.00
18900;BME280;9582;52.018;6.306;2023-07-31T11:20:55;95996.09;;;18.36;100.00
18900;BME280;9582;52.018;6.306;2023-07-31T11:23:22;95999.41;;;18.43;100.00
18900;BME280;9582;52.018;6.306;2023-07-31T11:25:49;95992.16;;;18.51;100.00
18900;BME280;9582;52.018;6.306;2023-07-31T11:28:17;96011.72;;;18.50;100.00
18900;BME280;9582;52.018;6.306;2023-07-31T11:30:45;96036.75;;;18.47;100.00
18900;BME280;9582;52.018;6.306;2023-07-31T11:33:13;96041.13;;;18.41;100.00
18900;BME280;9582;52.018;6.306;2023-07-31T11:35:43;96059.28;;;18.38;100.00
18900;BME280;9582;52.018;6.306;2023-07-31T11:38:11;96074.94;;;18.39;100.00
18900;BME280;9582;52.018;6.306;2023-07-31T11:40:41;96086.66;;;18.43;100.00
18900;BME280;9582;52.018;6.306;2023-07-31T11:43:08;96090.22;;;18.49;100.00
18900;BME280;9582;52.018;6.306;2023-07-31T11:45:36;96111.16;;;18.51;100.00
18900;BME280;9582;52.018;6.306;2023-07-31T11:48:03;96131.75;;;18.49;100.00
18900;BME280;9582;52.018;6.306;2023-07-31T11:50:33;96154.25;;;18.39;100.00
18900;BME280;9582;52.018;6.306;2023-07-31T11:53:05;96179.19;;;18.32;100.00
18900;BME280;9582;52.018;6.306;2023-07-31T11:55:34;96201.03;;;18.27;100.00
18900;BME280;9582;52.018;6.306;2023-07-31T11:58:01;96216.91;;;18.27;100.00
18900;BME280;9582;52.018;6.306;2023-07-31T12:00:28;96218.97;;;18.25;100.00
18900;BME280;9582;52.018;6.306;2023-07-31T12:02:55;96229.66;;;18.30;100.00
18900;BME280;9582;52.018;6.306;2023-07-31T12:05:22;96238.50;;;18.36;100.00
18900;BME280;9582;52.018;6.306;2023-07-31T12:07:50;96242.09;;;18.41;100.00
18900;BME280;9582;52.018;6.306;2023-07-31T12:10:29;96247.13;;;18.43;100.00
18900;BME280;9582;52.018;6.306;2023-07-31T12:13:04;96248.88;;;18.49;100.00
18900;BME280;9582;52.018;6.306;2023-07-31T12:15:35;96266.44;;;18.43;100.00
18900;BME280;9582;52.018;6.306;2023-07-31T12:18:07;96278.66;;;18.44;100.00
18900;BME280;9582;52.018;6.306;2023-07-31T12:20:34;96295.41;;;18.38;100.00
18900;BME280;9582;52.018;6.306;2023-07-31T12:23:01;96306.00;;;18.38;100.00
18900;BME280;9582;52.018;6.306;2023-07-31T12:25:33;96310.03;;;18.41;100.00
18900;BME280;9582;52.018;6.306;2023-07-31T12:28:05;96320.50;;;18.48;100.00
18900;BME280;9582;52.018;6.306;2023-07-31T12:30:37;96311.00;;;18.58;100.00
18900;BME280;9582;52.018;6.306;2023-07-31T12:33:04;96305.84;;;18.75;100.00
18900;BME280;9582;52.018;6.306;2023-07-31T12:35:35;96311.72;;;18.77;100.00
18900;BME280;9582;52.018;6.306;2023-07-31T12:38:02;96318.41;;;18.79;100.00
18900;BME280;9582;52.018;6.306;2023-07-31T12:40:29;96325.28;;;18.80;100.00
18900;BME280;9582;52.018;6.306;2023-07-31T12:42:57;96348.16;;;18.75;100.00
18900;BME280;9582;52.018;6.306;2023-07-31T12:45:23;96367.16;;;18.72;100.00
18900;BME280;9582;52.018;6.306;2023-07-31T12:47:49;96377.16;;;18.70;100.00
18900;BME280;9582;52.018;6.306;2023-07-31T12:50:16;96380.50;;;18.77;100.00
18900;BME280;9582;52.018;6.306;2023-07-31T12:52:43;96380.97;;;18.85;100.00
18900;BME280;9582;52.018;6.306;2023-07-31T12:55:09;96380.66;;;18.93;100.00
18900;BME280;9582;52.018;6.306;2023-07-31T12:57:36;96404.13;;;18.90;100.00
18900;BME280;9582;52.018;6.306;2023-07-31T13:00:05;96414.44;;;18.80;100.00
18900;BME280;9582;52.018;6.306;2023-07-31T13:02:32;96439.94;;;18.74;100.00
18900;BME280;9582;52.018;6.306;2023-07-31T13:04:59;96462.81;;;18.69;100.00
18900;BME280;9582;52.018;6.306;2023-07-31T13:07:26;96484.44;;;18.66;100.00
18900;BME280;9582;52.018;6.306;2023-07-31T13:09:52;96505.25;;;18.62;100.00
18900;BME280;9582;52.018;6.306;2023-07-31T13:12:19;96521.78;;;18.58;100.00